FABS weather

Brits Airport
Brits, North-West, South Africa

Public forecast

Using degrees Celsius for public forecast. Weather courtesy of forecast.io.

Closest aviation weather report (METAR) to Brits Airport

Report is more than 2 hours old.

Closest report is Wonderboom Airport, 25.3 nm (46.9 km) ESE. Retrieved 2020/01/25 15:00 UTC (2 hours ago):

FAWB 251500Z 27009KT 9999 SCT035 25/16 Q1018

Closest aviation forecast (TAF) to Brits Airport

Forecast is more than 12 hours old.

Closest forecast is Wonderboom Airport, 25.3 nm (46.9 km) ESE. Retrieved 2019/01/10 10:00 UTC (1 year ago):

TAF FAWB 101000Z 1010/1018 30007KT CAVOK BECMG 1014/1016 SCT035 PROB30 TEMPO 1016/1018 -TSRA FEW040CB TX31/1013Z TN26/1018Z